Time;durP1;ratioP1;P1;durP2;ratioP2;P2;SDS_P1;SDS_P2;PMS_P1;PMS_P2;Temp;Humidity;BMP_temperature;BMP_pressure;BME280_temperature;BME280_humidity;BME280_pressure;Samples;Min_cycle;Max_cycle;Signal;HPM_P1;HPM_P2
2023/05/12 00:02:15;;;;;;;6.10;5.50;;;;;;;10.54;100.00;97863.41;5072791;28;20212;-77
2023/05/12 00:04:43;;;;;;;5.70;5.10;;;;;;;10.52;100.00;97859.19;5072559;28;20325;-77
2023/05/12 00:07:09;;;;;;;5.83;5.23;;;;;;;10.48;100.00;97858.56;5072479;28;20278;-77
2023/05/12 00:09:36;;;;;;;6.20;5.60;;;;;;;10.49;100.00;97859.41;5072486;28;20280;-77
2023/05/12 00:12:02;;;;;;;7.13;5.93;;;;;;;10.45;100.00;97847.38;5072531;28;20234;-77
2023/05/12 00:14:29;;;;;;;6.97;5.57;;;;;;;10.38;100.00;97851.41;5072379;28;20229;-77
2023/05/12 00:16:55;;;;;;;6.60;5.93;;;;;;;10.34;100.00;97849.97;5072346;28;20624;-77
2023/05/12 00:19:22;;;;;;;6.73;6.03;;;;;;;10.35;100.00;97846.34;5071321;28;20233;-77
2023/05/12 00:21:49;;;;;;;7.77;6.10;;;;;;;10.33;100.00;97843.81;5072245;28;20214;-77
2023/05/12 00:24:16;;;;;;;8.30;7.07;;;;;;;10.34;100.00;97847.31;5072123;28;20240;-77
2023/05/12 00:26:42;;;;;;;9.13;6.83;;;;;;;10.31;100.00;97850.16;5072735;28;20211;-77
2023/05/12 00:29:09;;;;;;;9.00;6.83;;;;;;;10.21;100.00;97843.88;5071911;28;20209;-77
2023/05/12 00:31:35;;;;;;;8.20;6.80;;;;;;;10.12;100.00;97845.38;5072066;28;20234;-77
2023/05/12 00:34:02;;;;;;;8.47;6.40;;;;;;;10.04;100.00;97842.44;5071937;28;20227;-77
2023/05/12 00:36:29;;;;;;;8.93;7.10;;;;;;;9.99;100.00;97843.69;5072147;28;20220;-77
2023/05/12 00:38:57;;;;;;;10.37;6.83;;;;;;;9.97;100.00;97842.97;5072043;28;20265;-77
2023/05/12 00:41:23;;;;;;;9.17;6.93;;;;;;;9.95;100.00;97843.06;5071702;28;20205;-77
2023/05/12 00:43:51;;;;;;;7.70;6.63;;;;;;;9.95;100.00;97842.22;5071998;28;20218;-77
2023/05/12 00:46:18;;;;;;;7.90;6.83;;;;;;;9.93;100.00;97844.97;5071944;28;20297;-77
2023/05/12 00:48:45;;;;;;;9.23;6.83;;;;;;;9.93;100.00;97838.84;5071739;28;20210;-77
2023/05/12 00:51:13;;;;;;;8.83;7.27;;;;;;;9.92;100.00;97842.44;5071734;28;20229;-77
2023/05/12 00:53:41;;;;;;;8.67;6.90;;;;;;;9.94;100.00;97841.38;5071958;28;20214;-77
2023/05/12 00:56:09;;;;;;;8.67;7.10;;;;;;;9.98;100.00;97842.00;5071569;28;20208;-77
2023/05/12 00:58:35;;;;;;;8.37;6.80;;;;;;;9.98;100.00;97842.00;5071546;28;20220;-77
2023/05/12 01:01:02;;;;;;;8.10;6.57;;;;;;;10.00;100.00;97837.44;5069873;28;20210;-77
2023/05/12 01:03:29;;;;;;;11.43;9.00;;;;;;;10.10;100.00;97843.81;5068830;28;20752;-77
2023/05/12 01:06:01;;;;;;;9.93;8.33;;;;;;;10.15;100.00;97836.41;5068534;28;20237;-77
2023/05/12 01:08:29;;;;;;;10.80;9.20;;;;;;;10.18;100.00;97838.81;5069210;28;20212;-77
2023/05/12 01:10:55;;;;;;;12.70;9.47;;;;;;;10.15;100.00;97833.75;5071124;28;20231;-77
2023/05/12 01:13:23;;;;;;;13.23;9.40;;;;;;;10.15;100.00;97842.50;5071914;28;20670;-77
2023/05/12 01:15:51;;;;;;;14.07;10.90;;;;;;;10.22;100.00;97835.00;5071214;28;20229;-77
2023/05/12 01:18:21;;;;;;;16.60;12.07;;;;;;;10.33;100.00;97835.06;5071284;28;20210;-77
2023/05/12 01:20:48;;;;;;;15.43;11.97;;;;;;;10.35;100.00;97835.78;5071210;28;20553;-77
2023/05/12 01:23:18;;;;;;;12.77;10.90;;;;;;;10.33;100.00;97833.25;5071317;28;20222;-77
2023/05/12 01:25:48;;;;;;;15.30;10.73;;;;;;;10.33;100.00;97833.25;5071268;28;20330;-77
2023/05/12 01:28:17;;;;;;;14.70;11.13;;;;;;;10.32;100.00;97831.56;5071195;28;20204;-77
2023/05/12 01:30:45;;;;;;;16.33;11.63;;;;;;;10.37;100.00;97833.88;5070892;28;20230;-77
2023/05/12 01:33:11;;;;;;;14.03;11.27;;;;;;;10.40;100.00;97828.38;5071419;28;20581;-77
2023/05/12 01:35:38;;;;;;;13.07;10.00;;;;;;;10.41;100.00;97830.88;5071109;28;20239;-77
2023/05/12 01:38:04;;;;;;;13.57;10.33;;;;;;;10.44;100.00;97837.75;5071319;28;20304;-77
2023/05/12 01:40:31;;;;;;;12.03;9.40;;;;;;;10.48;100.00;97831.28;5070859;28;20220;-77
2023/05/12 01:42:57;;;;;;;11.73;8.73;;;;;;;10.52;100.00;97824.84;5071025;28;20218;-77
2023/05/12 01:45:25;;;;;;;12.00;8.70;;;;;;;10.54;100.00;97833.47;5071222;28;20282;-77
2023/05/12 01:47:52;;;;;;;11.27;9.00;;;;;;;10.56;100.00;97828.91;5071189;28;20572;-77
2023/05/12 01:50:18;;;;;;;11.17;9.13;;;;;;;10.62;100.00;97833.75;5070884;28;20585;-77
2023/05/12 01:52:45;;;;;;;12.30;9.53;;;;;;;10.64;100.00;97840.63;5071105;28;20214;-77
2023/05/12 01:55:11;;;;;;;11.20;9.07;;;;;;;10.68;100.00;97839.44;5071149;28;20236;-77
2023/05/12 01:57:38;;;;;;;16.97;11.13;;;;;;;10.71;100.00;97836.56;5070782;28;20208;-77
2023/05/12 02:00:05;;;;;;;14.03;11.07;;;;;;;10.76;100.00;97841.53;5070886;28;20214;-77
2023/05/12 02:02:33;;;;;;;16.50;11.33;;;;;;;10.76;100.00;97831.78;5071073;28;20579;-77
2023/05/12 02:05:00;;;;;;;16.50;11.23;;;;;;;10.82;100.00;97835.78;5070893;28;20251;-77
2023/05/12 02:07:26;;;;;;;16.83;11.30;;;;;;;10.80;100.00;97837.66;5070873;28;20679;-77
2023/05/12 02:09:53;;;;;;;14.80;11.33;;;;;;;10.73;100.00;97832.03;5070633;28;20683;-77
2023/05/12 02:12:19;;;;;;;15.60;12.53;;;;;;;10.71;100.00;97833.91;5070840;28;20231;-77
2023/05/12 02:14:45;;;;;;;14.20;10.90;;;;;;;10.69;100.00;97837.63;5070930;28;20237;-77
2023/05/12 02:17:12;;;;;;;16.47;11.93;;;;;;;10.71;100.00;97836.56;5070782;28;20203;-77
2023/05/12 02:19:40;;;;;;;15.37;10.67;;;;;;;10.61;100.00;97834.72;5070549;28;20205;-77
2023/05/12 02:22:06;;;;;;;17.63;12.73;;;;;;;10.58;100.00;97837.59;5070786;28;20225;-77
2023/05/12 02:24:33;;;;;;;18.33;12.30;;;;;;;10.52;100.00;97832.75;5070686;28;20224;-77
2023/05/12 02:26:59;;;;;;;17.87;12.57;;;;;;;10.51;100.00;97831.09;5070644;28;20674;-77
2023/05/12 02:29:26;;;;;;;18.30;11.67;;;;;;;10.53;100.00;97829.97;5070555;28;20232;-77
2023/05/12 02:31:52;;;;;;;16.70;11.40;;;;;;;10.50;100.00;97829.38;5070720;28;20225;-77
2023/05/12 02:34:19;;;;;;;15.43;10.90;;;;;;;10.48;100.00;97826.00;5070599;28;20227;-77
2023/05/12 02:36:46;;;;;;;13.67;9.97;;;;;;;10.44;100.00;97829.81;5070638;28;20210;-77
2023/05/12 02:39:13;;;;;;;13.23;9.77;;;;;;;10.43;100.00;97833.41;5070235;28;20210;-77
2023/05/12 02:41:39;;;;;;;15.17;10.33;;;;;;;10.41;100.00;97822.13;5070515;28;20264;-77
2023/05/12 02:44:06;;;;;;;16.80;11.30;;;;;;;10.43;100.00;97828.13;5073869;28;20233;-77
2023/05/12 02:46:33;;;;;;;16.20;11.37;;;;;;;10.42;100.00;97829.94;5074194;28;20209;-77
2023/05/12 02:48:59;;;;;;;15.20;10.33;;;;;;;10.42;100.00;97831.75;5074082;28;20226;-77
2023/05/12 02:51:25;;;;;;;14.80;10.70;;;;;;;10.40;100.00;97826.56;5073936;28;20263;-77
2023/05/12 02:53:53;;;;;;;14.67;10.20;;;;;;;10.41;100.00;97824.78;5073859;28;20208;-77
2023/05/12 02:56:20;;;;;;;14.87;10.43;;;;;;;10.46;100.00;97827.94;5074154;28;20205;-77
2023/05/12 02:58:46;;;;;;;17.27;11.13;;;;;;;10.55;100.00;97828.09;5074053;28;20206;-77
2023/05/12 03:01:13;;;;;;;20.03;13.00;;;;;;;10.56;100.00;97826.28;5073729;28;20212;-77
2023/05/12 03:03:40;;;;;;;16.83;11.73;;;;;;;10.59;100.00;97826.06;5073917;28;20600;-77
2023/05/12 03:06:07;;;;;;;14.03;10.20;;;;;;;10.62;100.00;97823.19;5103849;22;20250;-84
2023/05/12 03:08:33;;;;;;;13.27;9.60;;;;;;;10.61;100.00;97832.06;5094355;28;20207;-84
2023/05/12 03:11:01;;;;;;;14.47;10.37;;;;;;;10.64;100.00;97822.13;5094391;28;20210;-84
2023/05/12 03:13:28;;;;;;;13.30;9.33;;;;;;;10.63;100.00;97830.16;5093951;28;20210;-84
2023/05/12 03:15:55;;;;;;;12.80;9.73;;;;;;;10.64;100.00;97837.97;5093720;28;20226;-84
2023/05/12 03:18:22;;;;;;;12.20;9.43;;;;;;;10.66;100.00;97835.22;5093900;28;20207;-84
2023/05/12 03:20:49;;;;;;;13.33;10.30;;;;;;;10.69;100.00;97842.91;5093612;28;20214;-83
2023/05/12 03:23:15;;;;;;;14.13;10.57;;;;;;;10.70;100.00;97832.22;5093927;28;20214;-83
2023/05/12 03:25:42;;;;;;;13.27;9.77;;;;;;;10.73;100.00;97841.72;5093875;28;20441;-83
2023/05/12 03:28:10;;;;;;;12.80;9.73;;;;;;;10.75;100.00;97834.53;5093663;28;20210;-83
2023/05/12 03:30:36;;;;;;;15.43;10.10;;;;;;;10.76;100.00;97837.06;5093298;28;20244;-83
2023/05/12 03:33:03;;;;;;;11.83;8.83;;;;;;;10.79;100.00;97838.63;5093477;28;20382;-83
2023/05/12 03:35:30;;;;;;;12.07;9.70;;;;;;;10.80;100.00;97837.66;5093819;28;20235;-83
2023/05/12 03:37:56;;;;;;;12.47;9.10;;;;;;;10.82;100.00;97835.78;5093674;28;20220;-82
2023/05/12 03:40:23;;;;;;;11.93;9.07;;;;;;;10.80;100.00;97838.53;5093414;28;20221;-82
2023/05/12 03:42:49;;;;;;;11.07;8.53;;;;;;;10.80;100.00;97835.03;5093623;28;20210;-82
2023/05/12 03:45:17;;;;;;;10.70;8.60;;;;;;;10.81;100.00;97836.72;5093486;28;20236;-82
2023/05/12 03:47:44;;;;;;;9.23;8.03;;;;;;;10.80;100.00;97841.16;5093411;28;20638;-82
2023/05/12 03:50:11;;;;;;;10.60;8.17;;;;;;;10.81;100.00;97836.72;5093752;28;20207;-82
2023/05/12 03:52:40;;;;;;;9.67;8.07;;;;;;;10.78;100.00;97834.31;5093550;28;20645;-82
2023/05/12 03:55:07;;;;;;;11.07;8.57;;;;;;;10.79;100.00;97831.56;5092007;28;20223;-82
2023/05/12 03:57:35;;;;;;;11.73;9.43;;;;;;;10.80;100.00;97832.38;5093331;28;20212;-82
2023/05/12 04:00:02;;;;;;;11.30;8.27;;;;;;;10.81;100.00;97829.63;5093155;28;20209;-82
2023/05/12 04:02:30;;;;;;;12.30;9.03;;;;;;;10.85;100.00;97830.25;5093893;28;20205;-82
2023/05/12 04:04:57;;;;;;;10.83;9.03;;;;;;;10.86;100.00;97826.63;5093489;28;20242;-82
2023/05/12 04:07:23;;;;;;;11.77;9.47;;;;;;;10.89;100.00;97826.44;5093382;28;20233;-82
2023/05/12 04:09:50;;;;;;;12.97;9.90;;;;;;;10.90;100.00;97822.81;5092918;28;20578;-83
2023/05/12 04:12:16;;;;;;;13.27;10.30;;;;;;;10.93;100.00;97827.84;5093120;28;20234;-82
2023/05/12 04:14:43;;;;;;;15.60;10.43;;;;;;;10.95;100.00;97825.97;5093097;28;20233;-82
2023/05/12 04:17:09;;;;;;;13.80;9.77;;;;;;;11.05;100.00;97821.66;5092871;28;20216;-82
2023/05/12 04:19:37;;;;;;;13.60;9.30;;;;;;;10.95;100.00;97820.69;5093044;28;20212;-82
2023/05/12 04:22:04;;;;;;;14.23;9.77;;;;;;;10.87;100.00;97818.59;5093104;28;20297;-82
2023/05/12 04:24:30;;;;;;;15.13;10.00;;;;;;;10.84;100.00;97823.28;5092840;28;20233;-82
2023/05/12 04:26:57;;;;;;;14.43;9.93;;;;;;;10.87;100.00;97830.97;5104977;28;20222;-84
2023/05/12 04:29:23;;;;;;;14.67;10.17;;;;;;;10.86;100.00;97842.50;5107937;28;20313;-85
2023/05/12 04:31:50;;;;;;;12.10;9.40;;;;;;;10.87;100.00;97838.91;5105743;28;20252;-85
2023/05/12 04:34:16;;;;;;;13.80;10.07;;;;;;;10.92;100.00;97837.59;5107542;28;20220;-81
2023/05/12 04:36:44;;;;;;;15.47;10.00;;;;;;;10.97;100.00;97839.91;5101331;28;20215;-83
2023/05/12 04:39:11;;;;;;;12.33;9.87;;;;;;;10.93;100.00;97844.59;5093591;28;20588;-81
2023/05/12 04:41:38;;;;;;;12.93;8.83;;;;;;;10.96;100.00;97843.50;5093502;28;20203;-83
2023/05/12 04:44:05;;;;;;;12.93;9.33;;;;;;;10.98;100.00;97849.50;5093465;28;20301;-83
2023/05/12 04:46:31;;;;;;;12.50;9.50;;;;;;;11.00;100.00;97845.78;5093324;28;20335;-83
2023/05/12 04:48:58;;;;;;;12.20;8.93;;;;;;;11.02;100.00;97854.44;5093171;28;20214;-83
2023/05/12 04:51:24;;;;;;;11.37;8.67;;;;;;;11.00;100.00;97852.91;5092783;28;20214;-83
2023/05/12 04:53:52;;;;;;;13.23;9.70;;;;;;;11.05;100.00;97853.38;5092975;28;20262;-83
2023/05/12 04:56:19;;;;;;;11.87;8.80;;;;;;;11.06;100.00;97855.09;5092938;28;20581;-82
2023/05/12 04:58:45;;;;;;;14.17;10.40;;;;;;;11.05;100.00;97859.53;5092895;28;20210;-83
2023/05/12 05:01:12;;;;;;;12.53;9.60;;;;;;;11.10;100.00;97860.03;5092273;28;20207;-83
2023/05/12 05:03:39;;;;;;;11.67;9.03;;;;;;;11.09;100.00;97857.50;5092240;28;20199;-83
2023/05/12 05:06:05;;;;;;;11.00;9.10;;;;;;;11.10;100.00;97862.66;5092019;28;20375;-83
2023/05/12 05:08:32;;;;;;;12.90;9.57;;;;;;;11.17;100.00;97863.88;5092720;28;20208;-83
2023/05/12 05:11:00;;;;;;;13.13;9.87;;;;;;;11.19;100.00;97867.25;5092240;28;20208;-83
2023/05/12 05:13:26;;;;;;;13.33;9.97;;;;;;;11.19;100.00;97859.31;5092606;28;20336;-83
2023/05/12 05:15:54;;;;;;;11.77;9.30;;;;;;;11.23;100.00;97858.13;5091791;28;20229;-84
2023/05/12 05:18:21;;;;;;;11.43;8.53;;;;;;;11.27;100.00;97861.38;5092141;28;20233;-81
2023/05/12 05:20:47;;;;;;;10.97;8.70;;;;;;;11.29;100.00;97864.75;5091617;28;20224;-84
2023/05/12 05:23:14;;;;;;;12.80;9.37;;;;;;;11.33;100.00;97859.13;5091974;28;20229;-81
2023/05/12 05:25:40;;;;;;;11.27;8.70;;;;;;;11.36;100.00;97865.97;5092243;28;20236;-82
2023/05/12 05:28:09;;;;;;;12.53;9.80;;;;;;;11.38;100.00;97866.72;5091568;28;20225;-82
2023/05/12 05:30:36;;;;;;;14.60;10.10;;;;;;;11.45;100.00;97863.47;5091726;28;20209;-81
2023/05/12 05:33:02;;;;;;;11.73;9.17;;;;;;;11.46;100.00;97866.97;5100927;28;20236;-81
2023/05/12 05:35:30;;;;;;;10.93;9.10;;;;;;;11.51;100.00;97873.59;5104029;28;20234;-82
2023/05/12 05:37:57;;;;;;;10.90;8.93;;;;;;;11.53;100.00;97874.31;5103130;28;20211;-83
2023/05/12 05:40:23;;;;;;;12.50;9.43;;;;;;;11.57;100.00;97873.09;5103282;28;20203;-82
2023/05/12 05:42:50;;;;;;;11.27;8.80;;;;;;;11.61;100.00;97879.06;5095716;28;20210;-86
2023/05/12 05:45:18;;;;;;;11.20;8.93;;;;;;;11.60;100.00;97877.34;5092009;28;20260;-84
2023/05/12 05:47:45;;;;;;;9.73;7.87;;;;;;;11.60;100.00;97877.34;5091854;28;20412;-82
2023/05/12 05:50:12;;;;;;;11.37;9.70;;;;;;;11.62;100.00;97883.38;5091488;28;20210;-82
2023/05/12 05:52:38;;;;;;;10.77;8.43;;;;;;;11.62;100.00;97881.56;5092041;28;20256;-86
2023/05/12 05:55:06;;;;;;;10.87;9.17;;;;;;;11.66;100.00;97874.22;5091900;28;20235;-84
2023/05/12 05:57:33;;;;;;;10.03;8.03;;;;;;;11.68;100.00;97882.91;5092266;28;20589;-84
2023/05/12 05:59:59;;;;;;;10.27;7.53;;;;;;;11.69;100.00;97884.59;5090186;28;20596;-82
2023/05/12 06:02:27;;;;;;;10.85;9.57;;;;;;;11.74;100.00;97883.25;5087117;28;20432;-82
2023/05/12 06:04:54;;;;;;;9.53;8.47;;;;;;;11.66;100.00;97883.03;5087489;28;20454;-82
2023/05/12 06:07:20;;;;;;;11.77;9.10;;;;;;;11.65;100.00;97876.03;5089212;28;20512;-82
2023/05/12 06:09:47;;;;;;;9.90;8.17;;;;;;;11.66;100.00;97876.88;5091588;28;20229;-83
2023/05/12 06:12:13;;;;;;;9.73;7.83;;;;;;;11.75;100.00;97886.75;5091330;28;20245;-83
2023/05/12 06:14:40;;;;;;;9.10;7.70;;;;;;;11.76;100.00;97886.66;5089011;28;20233;-83
2023/05/12 06:17:06;;;;;;;10.37;7.90;;;;;;;11.77;100.00;97896.28;5089096;28;20203;-83
2023/05/12 06:19:35;;;;;;;9.80;8.10;;;;;;;11.79;100.00;97894.34;5092440;28;20205;-84
2023/05/12 06:22:01;;;;;;;8.47;7.30;;;;;;;11.79;100.00;97896.16;5094740;28;20210;-84
2023/05/12 06:24:28;;;;;;;9.93;7.60;;;;;;;11.85;100.00;97900.94;5095422;28;20666;-84
2023/05/12 06:26:55;;;;;;;9.83;8.10;;;;;;;11.87;100.00;97899.06;5093197;28;20206;-84
2023/05/12 06:29:21;;;;;;;9.87;8.00;;;;;;;11.98;100.00;97904.34;5092477;28;20228;-84
2023/05/12 06:31:48;;;;;;;9.70;8.27;;;;;;;12.04;100.00;97903.88;5092588;28;20236;-84
2023/05/12 06:34:15;;;;;;;9.60;8.57;;;;;;;12.07;100.00;97903.63;5093326;28;20445;-83
2023/05/12 06:36:43;;;;;;;10.13;8.17;;;;;;;12.16;100.00;97900.25;5095107;28;20216;-84
2023/05/12 06:39:14;;;;;;;9.77;8.67;;;;;;;12.16;100.00;97909.03;5094191;28;20209;-84
2023/05/12 06:41:41;;;;;;;9.80;8.40;;;;;;;12.27;100.00;97910.81;5092240;28;20245;-84
2023/05/12 06:44:11;;;;;;;10.93;9.00;;;;;;;12.33;100.00;97905.91;5092011;28;20218;-84
2023/05/12 06:46:38;;;;;;;10.00;8.77;;;;;;;12.40;100.00;97906.25;5091854;28;20230;-84
2023/05/12 06:49:04;;;;;;;9.40;8.40;;;;;;;12.38;100.00;97908.16;5094644;28;20206;-84
2023/05/12 06:51:31;;;;;;;9.90;8.00;;;;;;;12.37;100.00;97901.19;5094629;28;20585;-84
2023/05/12 06:53:58;;;;;;;9.73;8.43;;;;;;;12.37;100.00;97902.06;5092174;28;20402;-83
2023/05/12 06:56:25;;;;;;;9.17;8.03;;;;;;;12.32;100.00;97909.50;5091524;28;20387;-84
2023/05/12 06:58:53;;;;;;;9.00;8.10;;;;;;;12.31;100.00;97904.34;5091667;28;20681;-83
2023/05/12 07:01:19;;;;;;;9.70;8.07;;;;;;;12.27;100.00;97905.53;5092348;28;20212;-81
2023/05/12 07:03:46;;;;;;;9.40;7.83;;;;;;;12.29;100.00;97906.28;5093886;28;20230;-86
2023/05/12 07:06:12;;;;;;;10.23;8.13;;;;;;;12.41;100.00;97915.91;5092349;28;20244;-84
2023/05/12 07:08:39;;;;;;;9.00;7.87;;;;;;;12.43;100.00;97912.16;5091354;28;20233;-84
2023/05/12 07:11:07;;;;;;;9.50;7.37;;;;;;;12.53;100.00;97912.25;5090897;28;20214;-84
2023/05/12 07:13:34;;;;;;;8.67;7.33;;;;;;;12.70;100.00;97909.06;5090957;28;20239;-85
2023/05/12 07:16:00;;;;;;;9.17;7.33;;;;;;;12.84;100.00;97908.81;5093802;28;20231;-83
2023/05/12 07:18:26;;;;;;;8.20;7.10;;;;;;;12.97;100.00;97906.88;5093546;28;20218;-84
2023/05/12 07:20:53;;;;;;;9.10;7.47;;;;;;;13.12;100.00;97910.88;5090581;28;20611;-84
2023/05/12 07:23:20;;;;;;;9.63;7.63;;;;;;;13.19;100.00;97901.44;5091050;28;20205;-85
2023/05/12 07:25:46;;;;;;;10.40;7.17;;;;;;;13.25;100.00;97906.25;5090682;28;20234;-85
2023/05/12 07:28:14;;;;;;;7.67;6.87;;;;;;;13.30;100.00;97906.72;5091069;28;20686;-85
2023/05/12 07:30:41;;;;;;;9.90;7.60;;;;;;;13.34;100.00;97894.88;5092312;28;20370;-84
2023/05/12 07:33:08;;;;;;;8.30;7.37;;;;;;;13.25;100.00;97891.19;5091687;28;20226;-85
2023/05/12 07:35:34;;;;;;;7.33;6.57;;;;;;;13.17;100.00;97898.94;5090184;28;20230;-85
2023/05/12 07:38:02;;;;;;;7.80;6.97;;;;;;;13.24;100.00;97894.81;5090288;28;20478;-85
2023/05/12 07:40:28;;;;;;;7.70;6.90;;;;;;;13.24;100.00;97899.25;5090962;28;20225;-85
2023/05/12 07:42:55;;;;;;;7.40;6.00;;;;;;;13.36;100.00;97893.78;5092613;28;20207;-85
2023/05/12 07:45:24;;;;;;;8.17;7.10;;;;;;;13.55;100.00;97893.06;5092345;28;20227;-85
2023/05/12 07:47:51;;;;;;;8.10;6.93;;;;;;;13.65;100.00;97894.81;5089881;28;20210;-85
2023/05/12 07:50:17;;;;;;;8.13;7.30;;;;;;;13.76;100.00;97893.91;5089268;28;20219;-84
2023/05/12 07:52:48;;;;;;;8.77;7.23;;;;;;;13.97;100.00;97886.72;5089746;28;20223;-84
2023/05/12 07:55:16;;;;;;;7.37;6.17;;;;;;;14.06;100.00;97889.41;5092053;28;20218;-84
2023/05/12 07:57:42;;;;;;;7.07;6.23;;;;;;;14.13;100.00;97884.44;5093003;28;20227;-84
2023/05/12 08:00:11;;;;;;;6.63;5.93;;;;;;;14.27;100.00;97892.06;5090604;28;20209;-84
2023/05/12 08:02:39;;;;;;;7.10;6.40;;;;;;;14.44;100.00;97883.44;5090211;28;20230;-83
2023/05/12 08:05:07;;;;;;;6.57;5.97;;;;;;;14.46;100.00;97882.34;5090000;28;20235;-83
2023/05/12 08:07:34;;;;;;;4.70;4.30;;;;;;;14.65;100.00;97881.53;5087910;28;20207;-83
2023/05/12 08:10:01;;;;;;;5.97;5.37;;;;;;;14.79;99.10;97875.84;5092116;28;20586;-84
2023/05/12 08:12:27;;;;;;;5.20;4.70;;;;;;;14.97;97.92;97882.16;5091751;28;20625;-84
2023/05/12 08:14:54;;;;;;;4.60;4.20;;;;;;;15.12;98.00;97886.06;5091772;28;20233;-84
2023/05/12 08:17:20;;;;;;;4.70;4.30;;;;;;;15.34;97.01;97888.50;5091393;28;20642;-84
2023/05/12 08:19:48;;;;;;;4.33;3.93;;;;;;;15.58;96.98;97883.56;5091560;28;20217;-84
2023/05/12 08:22:15;;;;;;;4.50;4.10;;;;;;;15.80;95.71;97883.22;5092126;28;20210;-84
2023/05/12 08:24:41;;;;;;;4.43;4.03;;;;;;;15.94;92.64;97875.59;5091774;28;20248;-84
2023/05/12 08:27:08;;;;;;;4.80;4.30;;;;;;;15.96;91.41;97864.81;5092333;28;20210;-84
2023/05/12 08:29:34;;;;;;;5.80;4.67;;;;;;;16.00;91.09;97871.53;5092183;28;20213;-84
2023/05/12 08:32:02;;;;;;;4.70;4.30;;;;;;;15.93;94.15;97883.72;5092211;28;20655;-84
2023/05/12 08:34:29;;;;;;;5.10;4.60;;;;;;;15.86;94.49;97887.97;5092168;28;20612;-84
2023/05/12 08:36:57;;;;;;;4.40;4.00;;;;;;;15.81;94.93;97884.88;5092173;28;20232;-84
2023/05/12 08:39:24;;;;;;;6.03;4.73;;;;;;;15.83;94.32;97880.28;5091658;28;20231;-84
2023/05/12 08:41:54;;;;;;;4.23;3.83;;;;;;;15.98;95.42;97888.47;5091416;28;20700;-84
2023/05/12 08:44:22;;;;;;;5.50;5.00;;;;;;;16.16;95.80;97892.06;5092456;28;20237;-83
2023/05/12 08:46:49;;;;;;;5.23;4.67;;;;;;;16.43;94.42;97881.47;5092283;28;20220;-82
2023/05/12 08:49:20;;;;;;;5.30;4.80;;;;;;;16.55;92.52;97876.75;5096496;28;20287;-83
2023/05/12 08:51:48;;;;;;;4.33;3.93;;;;;;;16.67;92.00;97875.56;5109640;28;20224;-84
2023/05/12 08:54:18;;;;;;;5.43;4.70;;;;;;;16.65;90.45;97881.06;5110117;28;20234;-84
2023/05/12 08:56:45;;;;;;;4.47;4.07;;;;;;;16.58;89.38;97874.63;5108344;28;20225;-84
2023/05/12 08:59:13;;;;;;;5.43;3.70;;;;;;;16.50;89.88;97884.38;5103125;28;20212;-84
2023/05/12 09:01:41;;;;;;;5.03;4.50;;;;;;;16.39;89.66;97888.09;5089081;28;20116;-85
2023/05/12 09:04:08;;;;;;;4.70;4.30;;;;;;;16.43;89.50;97885.97;5089360;28;20243;-84
2023/05/12 09:06:35;;;;;;;3.83;3.53;;;;;;;16.39;89.67;97898.75;5088772;22;20601;-78
2023/05/12 09:09:03;;;;;;;4.27;3.87;;;;;;;16.33;86.03;97877.97;5071357;28;20207;-78
2023/05/12 09:11:30;;;;;;;4.90;3.90;;;;;;;16.28;85.59;97874.06;5071204;28;20203;-78
2023/05/12 09:14:01;;;;;;;4.17;3.77;;;;;;;16.16;89.60;97885.91;5071965;28;20243;-77
2023/05/12 09:16:32;;;;;;;3.60;3.30;;;;;;;16.16;90.61;97897.41;5071526;28;20856;-78
2023/05/12 09:19:00;;;;;;;2.77;2.57;;;;;;;16.12;90.84;97894.38;5071474;28;20216;-78
2023/05/12 09:21:28;;;;;;;4.37;3.10;;;;;;;16.06;90.01;97894.94;5071615;28;20206;-77
2023/05/12 09:23:56;;;;;;;3.80;3.50;;;;;;;16.07;90.87;97885.97;5071453;28;20220;-77
2023/05/12 09:26:23;;;;;;;3.80;3.40;;;;;;;16.04;89.60;97893.25;5071624;28;20333;-77
2023/05/12 09:28:52;;;;;;;3.50;3.20;;;;;;;16.01;92.01;97903.34;5071515;28;20206;-79
2023/05/12 09:31:21;;;;;;;3.60;3.30;;;;;;;15.95;92.81;97903.09;5071327;28;20586;-77
2023/05/12 09:33:47;;;;;;;3.57;3.27;;;;;;;15.86;90.77;97898.63;5071251;28;20232;-79
2023/05/12 09:36:17;;;;;;;2.93;2.70;;;;;;;15.79;88.98;97886.88;5071258;28;20245;-77
2023/05/12 09:38:44;;;;;;;3.07;2.77;;;;;;;15.71;85.54;97865.44;5071558;28;20218;-75
2023/05/12 09:41:11;;;;;;;3.00;2.80;;;;;;;15.78;84.22;97862.06;5071189;28;20214;-77
2023/05/12 09:43:44;;;;;;;3.20;2.90;;;;;;;16.02;82.38;97857.03;5071641;28;20661;-75
2023/05/12 09:46:13;;;;;;;3.80;3.50;;;;;;;16.29;81.90;97854.41;5071281;28;20232;-76
2023/05/12 09:48:39;;;;;;;4.40;4.00;;;;;;;16.48;82.65;97865.88;5071320;28;20210;-75
2023/05/12 09:51:10;;;;;;;3.73;3.43;;;;;;;16.58;82.35;97861.28;5071401;28;20561;-77
2023/05/12 09:53:43;;;;;;;3.00;2.70;;;;;;;16.64;81.40;97866.03;5075524;28;20583;-75
2023/05/12 09:56:11;;;;;;;2.90;2.70;;;;;;;16.73;77.99;97851.81;5075299;28;20481;-76
2023/05/12 09:58:41;;;;;;;2.70;2.50;;;;;;;16.65;76.43;97846.34;5075364;28;20220;-77
2023/05/12 10:01:08;;;;;;;2.80;2.53;;;;;;;16.61;80.64;97866.34;5074962;28;20222;-77
2023/05/12 10:03:38;;;;;;;2.47;2.27;;;;;;;16.59;82.37;97862.97;5075344;28;20204;-77
2023/05/12 10:06:07;;;;;;;2.80;2.43;;;;;;;16.64;83.55;97871.38;5075371;28;20242;-76
2023/05/12 10:08:37;;;;;;;3.70;3.33;;;;;;;16.58;84.77;97876.47;5075792;28;20234;-75
2023/05/12 10:11:05;;;;;;;2.90;2.70;;;;;;;16.45;85.75;97884.81;5075646;28;20214;-76
2023/05/12 10:13:33;;;;;;;3.03;2.73;;;;;;;16.36;86.97;97891.03;5075762;28;20272;-77
2023/05/12 10:16:00;;;;;;;3.70;3.40;;;;;;;16.29;88.60;97891.75;5075590;28;20713;-75
2023/05/12 10:18:27;;;;;;;3.07;2.87;;;;;;;16.14;89.89;97899.38;5075425;28;20203;-75
2023/05/12 10:20:56;;;;;;;3.27;2.97;;;;;;;16.04;91.41;97898.56;5074831;28;20210;-75
2023/05/12 10:23:25;;;;;;;4.00;3.40;;;;;;;15.86;92.86;97907.47;5075878;28;20293;-76
2023/05/12 10:25:57;;;;;;;4.00;3.17;;;;;;;15.51;96.56;97917.91;5074624;28;20231;-77
2023/05/12 10:28:23;;;;;;;3.67;3.37;;;;;;;15.29;100.00;97917.31;5074895;28;20665;-75
2023/05/12 10:30:51;;;;;;;4.90;4.03;;;;;;;15.06;100.00;97923.88;5074689;28;20565;-75
2023/05/12 10:33:18;;;;;;;3.90;3.50;;;;;;;14.90;100.00;97912.97;5074864;28;20209;-74
2023/05/12 10:35:45;;;;;;;3.53;3.23;;;;;;;14.82;100.00;97923.44;5074980;28;20371;-76
2023/05/12 10:38:15;;;;;;;3.80;3.50;;;;;;;14.82;100.00;97923.44;5074690;28;20430;-75
2023/05/12 10:40:53;;;;;;;4.07;3.67;;;;;;;14.67;100.00;97908.84;5074217;28;20689;-75
2023/05/12 10:43:23;;;;;;;4.13;3.73;;;;;;;14.64;100.00;97915.28;5074551;28;20212;-75
2023/05/12 10:46:08;;;;;;;4.87;4.23;;;;;;;14.75;100.00;97919.63;5074288;28;20244;-76
2023/05/12 10:48:36;;;;;;;4.30;3.90;;;;;;;14.88;100.00;97915.75;5074279;28;20692;-76
2023/05/12 10:51:09;;;;;;;4.00;3.60;;;;;;;15.11;100.00;97916.34;5073987;28;20213;-75
2023/05/12 10:53:38;;;;;;;3.90;3.10;;;;;;;15.17;100.00;97905.97;5074076;28;20707;-78
2023/05/12 10:56:06;;;;;;;2.77;2.53;;;;;;;15.39;100.00;97912.88;5074585;28;20234;-75
2023/05/12 10:58:33;;;;;;;2.33;2.10;;;;;;;15.50;99.08;97902.91;5074071;28;20251;-76
2023/05/12 11:01:05;;;;;;;2.07;1.87;;;;;;;15.62;98.51;97901.78;5076562;28;20580;-76
2023/05/12 11:03:33;;;;;;;2.63;1.60;;;;;;;15.74;98.91;97905.09;5083788;28;20213;-76
2023/05/12 11:06:01;;;;;;;2.13;1.90;;;;;;;15.87;95.99;97905.63;5083120;28;20234;-77
2023/05/12 11:08:27;;;;;;;2.30;2.10;;;;;;;15.84;94.03;97895.28;5076028;28;20702;-76
2023/05/12 11:10:55;;;;;;;2.60;2.40;;;;;;;15.83;96.27;97905.09;5073711;28;20677;-75
2023/05/12 11:13:22;;;;;;;2.40;2.20;;;;;;;15.94;95.23;97907.59;5073954;28;20211;-75
2023/05/12 11:15:50;;;;;;;2.40;2.20;;;;;;;15.93;95.71;97905.06;5068658;28;20279;-75
2023/05/12 11:18:21;;;;;;;3.17;2.90;;;;;;;16.08;96.54;97916.94;5061207;28;20223;-75
2023/05/12 11:20:47;;;;;;;3.20;2.90;;;;;;;16.13;97.07;97917.38;5068075;28;20210;-76
2023/05/12 11:23:24;;;;;;;3.50;3.20;;;;;;;15.98;95.66;97913.47;5067490;28;20215;-76